createdAt,value
2018-06-25T00:04:37.619Z,46.5
2018-06-25T00:09:35.053Z,46.7
2018-06-25T00:14:32.365Z,46.8
2018-06-25T00:19:29.598Z,46.8
2018-06-25T00:24:26.928Z,47.1
2018-06-25T00:29:23.754Z,47.2
2018-06-25T00:34:20.914Z,47.2
2018-06-25T00:39:18.220Z,48.2
2018-06-25T00:44:15.590Z,48.4
2018-06-25T00:49:13.053Z,47.8
2018-06-25T00:54:10.311Z,48
2018-06-25T00:59:07.866Z,48.1
2018-06-25T01:04:05.223Z,48
2018-06-25T01:09:02.639Z,48.3
2018-06-25T01:14:00.064Z,48.5
2018-06-25T01:18:57.789Z,48.2
2018-06-25T01:23:55.523Z,48.2
2018-06-25T01:28:52.867Z,48.3
2018-06-25T01:33:50.188Z,48.4
2018-06-25T01:38:47.555Z,48.8
2018-06-25T01:43:45.258Z,49.1
2018-06-25T01:48:42.846Z,49.2
2018-06-25T01:53:40.043Z,49.4
2018-06-25T01:58:37.631Z,49.6
2018-06-25T02:03:34.690Z,49.7
2018-06-25T02:08:31.968Z,49.9
2018-06-25T02:13:29.502Z,49.8
2018-06-25T02:18:26.915Z,50
2018-06-25T02:23:24.368Z,50.3
2018-06-25T02:28:22.115Z,50.4
2018-06-25T02:33:19.513Z,50.7
2018-06-25T02:38:16.535Z,50.5
2018-06-25T02:43:14.163Z,50.6
2018-06-25T02:48:11.811Z,50.8
2018-06-25T02:53:09.197Z,50.8
2018-06-25T02:58:06.484Z,51
2018-06-25T03:03:03.695Z,51
2018-06-25T03:08:01.398Z,51.3
2018-06-25T03:12:59.074Z,51.3
2018-06-25T03:17:56.864Z,51.9
2018-06-25T03:22:54.074Z,51.9
2018-06-25T03:27:51.442Z,51.7
2018-06-25T03:32:48.838Z,51.7
2018-06-25T03:37:46.450Z,51.6
2018-06-25T03:42:43.918Z,51.6
2018-06-25T03:47:41.364Z,51.9
2018-06-25T03:52:38.758Z,51.7
2018-06-25T03:57:36.570Z,51.6
2018-06-25T04:02:33.918Z,52.2
2018-06-25T04:07:31.863Z,52.1
2018-06-25T04:12:29.307Z,53
2018-06-25T04:17:26.212Z,52.6
2018-06-25T04:22:23.729Z,52.8
2018-06-25T04:27:21.087Z,52.8
2018-06-25T04:32:18.764Z,52.9
2018-06-25T04:37:16.247Z,53.4
2018-06-25T04:42:13.783Z,53.1
2018-06-25T04:47:10.963Z,53.5
2018-06-25T04:52:08.374Z,53.4
2018-06-25T04:57:06.488Z,53.5
2018-06-25T05:02:03.665Z,53.7
2018-06-25T05:07:01.282Z,53.9
2018-06-25T05:11:58.647Z,53.9
2018-06-25T05:16:55.550Z,54
2018-06-25T05:21:52.524Z,54
2018-06-25T05:26:48.413Z,54
2018-06-25T05:31:45.463Z,53.8
2018-06-25T05:36:42.639Z,53.7
2018-06-25T05:41:39.405Z,53.6
2018-06-25T05:46:36.452Z,53.7
2018-06-25T05:51:33.223Z,53.4
2018-06-25T05:56:30.747Z,53.5
2018-06-25T06:01:28.066Z,53.4
2018-06-25T06:06:25.027Z,53.6
2018-06-25T06:11:21.686Z,53.5
2018-06-25T06:16:19.047Z,53.2
2018-06-25T06:21:16.385Z,53.1
2018-06-25T06:26:14.027Z,52.9
2018-06-25T06:31:11.129Z,52.6
2018-06-25T06:36:08.527Z,52.7
2018-06-25T06:41:05.818Z,52.8
2018-06-25T06:46:03.060Z,52.8
2018-06-25T06:51:00.378Z,52.8
2018-06-25T06:55:57.802Z,52.7
2018-06-25T07:00:54.651Z,52.8
2018-06-25T07:05:51.978Z,52.7
2018-06-25T07:10:49.787Z,52.9
2018-06-25T07:15:46.429Z,52.7
2018-06-25T07:20:44.199Z,52.8
2018-06-25T07:25:41.147Z,52.4
2018-06-25T07:30:38.547Z,52.4
2018-06-25T07:35:35.101Z,52.3
2018-06-25T07:40:32.354Z,52.2
2018-06-25T07:45:29.801Z,52
2018-06-25T07:50:25.938Z,52
2018-06-25T07:55:23.236Z,51.7
2018-06-25T08:00:20.890Z,51.3
2018-06-25T08:05:18.001Z,51.2
2018-06-25T08:10:15.348Z,51.2
2018-06-25T08:15:16.515Z,51.2
2018-06-25T08:20:13.929Z,50.8
2018-06-25T08:25:11.269Z,51
2018-06-25T08:30:09.238Z,50.8
2018-06-25T08:35:06.636Z,50.9
2018-06-25T08:40:04.162Z,51
2018-06-25T08:45:01.314Z,50.9
2018-06-25T08:49:58.482Z,50.9
2018-06-25T08:54:56.204Z,50.4
2018-06-25T08:59:53.784Z,50.3
2018-06-25T09:04:51.278Z,49.4
2018-06-25T09:09:49.994Z,49.5
2018-06-25T09:14:46.721Z,48.9
2018-06-25T09:19:43.976Z,48.3
2018-06-25T09:24:41.167Z,48.1
2018-06-25T09:29:38.148Z,48.2
2018-06-25T09:34:35.804Z,48.3
2018-06-25T09:39:33.214Z,48
2018-06-25T09:44:30.673Z,47.8
2018-06-25T09:49:28.556Z,47.5
2018-06-25T09:54:26.353Z,47.4
2018-06-25T09:59:23.854Z,47.3
2018-06-25T10:04:21.579Z,47.1
2018-06-25T10:09:19.087Z,46.2
2018-06-25T10:14:16.712Z,46.6
2018-06-25T10:19:13.989Z,45.8
2018-06-25T10:24:11.267Z,45.9
2018-06-25T10:29:09.076Z,45.3
2018-06-25T10:34:06.929Z,45.2
2018-06-25T10:39:04.220Z,45.1
2018-06-25T10:44:02.206Z,45.2
2018-06-25T10:48:59.666Z,45.1
2018-06-25T10:53:57.199Z,45
2018-06-25T10:58:54.588Z,44.6
2018-06-25T11:03:52.163Z,44.3
2018-06-25T11:08:50.241Z,44.7
2018-06-25T11:13:48.035Z,44.2
2018-06-25T11:18:45.677Z,44
2018-06-25T11:23:43.356Z,44
2018-06-25T11:28:41.161Z,42.4
2018-06-25T11:33:38.453Z,43.2
2018-06-25T11:38:36.138Z,42.8
2018-06-25T11:43:33.681Z,42.3
2018-06-25T11:48:30.958Z,42
2018-06-25T11:53:28.295Z,42.2
2018-06-25T11:58:25.795Z,42
2018-06-25T12:03:23.751Z,41.8
2018-06-25T12:08:21.359Z,41.5
2018-06-25T12:13:19.129Z,40.9
2018-06-25T12:18:16.563Z,40.9
2018-06-25T12:23:14.136Z,41.4
2018-06-25T12:28:11.825Z,41.9
2018-06-25T12:33:09.385Z,42.2
2018-06-25T12:38:07.087Z,42.7
2018-06-25T12:43:04.397Z,45.6
2018-06-25T12:48:01.784Z,47.1
2018-06-25T12:52:59.549Z,47.9
2018-06-25T12:57:56.612Z,48
2018-06-25T13:02:54.341Z,48.3
2018-06-25T13:07:52.192Z,48.4
2018-06-25T13:12:49.879Z,48.5
2018-06-25T13:17:47.928Z,47
2018-06-25T13:22:46.051Z,45.7
2018-06-25T13:27:43.632Z,45.3
2018-06-25T13:32:40.959Z,45.3
2018-06-25T13:37:38.100Z,46.1
2018-06-25T13:42:35.798Z,45.3
2018-06-25T13:47:33.409Z,45.2
2018-06-25T13:52:31.348Z,44.5
2018-06-25T13:57:28.596Z,43.1
2018-06-25T14:02:25.970Z,42.4
2018-06-25T14:07:23.641Z,41.8
2018-06-25T14:12:21.381Z,41.7
2018-06-25T14:17:18.938Z,40.7
2018-06-25T14:22:16.744Z,40.6
2018-06-25T14:27:13.965Z,40.6
2018-06-25T14:32:11.127Z,40.5
2018-06-25T14:37:08.901Z,41.1
2018-06-25T14:42:06.024Z,41.2
2018-06-25T14:47:04.170Z,40.8
2018-06-25T14:52:01.758Z,40.6
2018-06-25T14:56:59.095Z,40.4
2018-06-25T15:01:56.969Z,38.8
2018-06-25T15:06:54.822Z,38.9
2018-06-25T15:11:52.602Z,37.9
2018-06-25T15:16:50.260Z,36.9
2018-06-25T15:21:47.885Z,34.1
2018-06-25T15:26:45.256Z,34.7
2018-06-25T15:31:43.126Z,35
2018-06-25T15:36:40.352Z,35.7
2018-06-25T15:41:38.023Z,36.4
2018-06-25T15:46:35.394Z,36.8
2018-06-25T15:51:32.821Z,37
2018-06-25T15:56:30.116Z,37.4
2018-06-25T16:01:27.417Z,37.8
2018-06-25T16:06:24.610Z,38.1
2018-06-25T16:11:21.942Z,38.5
2018-06-25T16:16:18.954Z,38.5
2018-06-25T16:21:16.416Z,38.5
2018-06-25T16:26:14.001Z,38.7
2018-06-25T16:31:11.212Z,39
2018-06-25T16:36:09.461Z,39.4
2018-06-25T16:41:06.886Z,39.7
2018-06-25T16:46:04.023Z,40.1
2018-06-25T16:51:01.635Z,40.4
2018-06-25T16:55:58.787Z,40.7
2018-06-25T17:00:56.072Z,40.8
2018-06-25T17:05:53.457Z,40.9
2018-06-25T17:10:50.576Z,41.2
2018-06-25T17:15:48.120Z,41.4
2018-06-25T17:20:45.795Z,41.5
2018-06-25T17:25:43.331Z,41.8
2018-06-25T17:30:40.637Z,42
2018-06-25T17:35:37.960Z,43
2018-06-25T17:40:36.009Z,43.4
2018-06-25T17:45:33.199Z,43.7
2018-06-25T17:50:30.690Z,44.2
2018-06-25T17:55:28.400Z,44.4
2018-06-25T18:00:25.980Z,45.1
2018-06-25T18:05:23.371Z,44.8
2018-06-25T18:10:21.452Z,45
2018-06-25T18:15:18.943Z,45.1
2018-06-25T18:20:16.347Z,45.4
2018-06-25T18:25:14.205Z,45.6
2018-06-25T18:30:12.216Z,46.1
2018-06-25T18:35:10.599Z,46.6
2018-06-25T18:40:08.264Z,46.6
2018-06-25T18:45:05.992Z,46.7
2018-06-25T18:50:04.126Z,47.3
2018-06-25T18:55:01.187Z,47.4
2018-06-25T18:59:58.713Z,47.7
2018-06-25T19:04:55.985Z,47.9
2018-06-25T19:09:53.462Z,47.7
2018-06-25T19:14:51.297Z,47.5
2018-06-25T19:19:48.812Z,47.4
2018-06-25T19:24:46.127Z,47.3
2018-06-25T19:29:43.481Z,47.6
2018-06-25T19:34:40.653Z,47.8
2018-06-25T19:39:37.508Z,47.9
2018-06-25T19:44:35.552Z,48
2018-06-25T19:49:33.758Z,48
2018-06-25T19:54:31.046Z,48.3
2018-06-25T19:59:27.945Z,48.3
2018-06-25T20:04:25.283Z,48.4
2018-06-25T20:09:22.751Z,48.5
2018-06-25T20:14:20.253Z,48.6
2018-06-25T20:19:17.686Z,48.8
2018-06-25T20:24:14.749Z,49
2018-06-25T20:29:16.656Z,49
2018-06-25T20:34:13.295Z,49
2018-06-25T20:39:10.576Z,49.2
2018-06-25T20:44:07.893Z,49.2
2018-06-25T20:49:05.145Z,49.3
2018-06-25T20:54:02.464Z,49.3
2018-06-25T20:58:59.742Z,49.4
2018-06-25T21:03:57.522Z,49.3
2018-06-25T21:08:54.584Z,49.5
2018-06-25T21:13:52.368Z,49.5
2018-06-25T21:18:49.877Z,49.4
2018-06-25T21:23:47.143Z,49.3
2018-06-25T21:28:44.864Z,49.2
2018-06-25T21:33:42.076Z,49.1
2018-06-25T21:38:39.545Z,49.1
2018-06-25T21:43:37.081Z,49.2
2018-06-25T21:48:34.627Z,49.2
2018-06-25T21:53:32.166Z,49.3
2018-06-25T21:58:29.916Z,49.2
2018-06-25T22:03:27.539Z,49.3
2018-06-25T22:08:24.913Z,48.9
2018-06-25T22:13:22.209Z,48.9
2018-06-25T22:18:19.914Z,48.8
2018-06-25T22:23:17.533Z,48.6
2018-06-25T22:28:15.083Z,48.6
2018-06-25T22:33:12.477Z,48.6
2018-06-25T22:38:10.071Z,48.7
2018-06-25T22:43:07.358Z,48.6
2018-06-25T22:48:04.326Z,48.7
2018-06-25T22:53:01.873Z,48.6
2018-06-25T22:57:58.857Z,48.7
2018-06-25T23:02:56.225Z,48.7
2018-06-25T23:07:53.491Z,48.7
2018-06-25T23:12:51.633Z,48.7
2018-06-25T23:17:48.346Z,48.8
2018-06-25T23:22:45.555Z,48.8
2018-06-25T23:27:43.049Z,48.9
2018-06-25T23:32:40.525Z,48.9
2018-06-25T23:37:37.777Z,48.9
2018-06-25T23:42:34.932Z,49
2018-06-25T23:47:33.448Z,49.1
2018-06-25T23:52:30.833Z,49.4
2018-06-25T23:57:28.354Z,49.6
